Time;durP1;ratioP1;P1;durP2;ratioP2;P2;SDS_P1;SDS_P2;PMS_P1;PMS_P2;Temp;Humidity;BMP_temperature;BMP_pressure;BME280_temperature;BME280_humidity;BME280_pressure;Samples;Min_cycle;Max_cycle;Signal;HPM_P1;HPM_P2
2022/07/30 00:00:40;;;;;;;10.60;3.70;;;;;;;17.30;100.00;101858.22;5101282;28;20475;-69
2022/07/30 00:03:05;;;;;;;6.15;3.47;;;;;;;17.32;100.00;101857.34;5112643;28;20031;-70
2022/07/30 00:05:31;;;;;;;12.88;4.05;;;;;;;17.30;100.00;101860.88;5110734;28;20104;-69
2022/07/30 00:07:56;;;;;;;10.90;3.55;;;;;;;17.21;100.00;101858.16;5100212;28;20019;-69
2022/07/30 00:10:22;;;;;;;9.23;4.43;;;;;;;17.30;100.00;101852.88;5097689;28;20031;-71
2022/07/30 00:12:47;;;;;;;5.45;3.42;;;;;;;17.35;100.00;101852.03;5112873;28;20064;-70
2022/07/30 00:15:13;;;;;;;7.90;3.67;;;;;;;17.37;100.00;101854.69;5102104;28;20015;-70
2022/07/30 00:17:38;;;;;;;8.10;3.10;;;;;;;17.27;100.00;101858.16;5106473;28;20032;-69
2022/07/30 00:20:04;;;;;;;7.38;3.45;;;;;;;17.16;100.00;101845.72;5102453;28;20031;-68
2022/07/30 00:22:30;;;;;;;6.20;3.80;;;;;;;17.01;100.00;101845.63;5109943;28;20119;-69
2022/07/30 00:24:55;;;;;;;10.77;4.07;;;;;;;16.95;100.00;101841.16;5107245;28;20039;-69
2022/07/30 00:27:21;;;;;;;8.05;4.05;;;;;;;16.91;100.00;101839.34;5110404;28;20587;-70
2022/07/30 00:29:46;;;;;;;9.32;3.85;;;;;;;16.86;100.00;101839.31;5111006;28;20019;-70
2022/07/30 00:32:11;;;;;;;12.15;4.40;;;;;;;16.83;100.00;101835.72;5111524;28;20118;-69
2022/07/30 00:34:37;;;;;;;11.02;4.07;;;;;;;16.78;100.00;101833.06;5090930;28;20019;-69
2022/07/30 00:37:02;;;;;;;9.10;4.70;;;;;;;16.80;100.00;101841.03;5107398;28;20103;-68
2022/07/30 00:39:29;;;;;;;14.77;6.07;;;;;;;16.76;100.00;101834.78;5109790;28;20098;-68
2022/07/30 00:41:57;;;;;;;7.25;4.15;;;;;;;16.70;100.00;101834.78;5101684;28;20126;-69
2022/07/30 00:44:22;;;;;;;10.43;4.18;;;;;;;16.65;100.00;101831.19;5086105;28;20028;-69
2022/07/30 00:46:48;;;;;;;7.93;3.75;;;;;;;16.76;100.00;101829.47;5110359;28;20387;-69
2022/07/30 00:49:13;;;;;;;8.00;3.95;;;;;;;16.68;100.00;101831.19;5103079;28;20024;-69
2022/07/30 00:51:39;;;;;;;8.45;4.35;;;;;;;16.67;100.00;101829.41;5096941;28;20031;-69
2022/07/30 00:54:04;;;;;;;8.00;3.70;;;;;;;16.76;100.00;101834.78;5078474;28;20020;-70
2022/07/30 00:56:29;;;;;;;7.97;4.00;;;;;;;16.64;100.00;101834.72;5110502;28;20114;-69
2022/07/30 00:58:55;;;;;;;9.35;4.00;;;;;;;16.50;100.00;101827.53;5109734;28;20044;-69
2022/07/30 01:01:20;;;;;;;11.13;3.65;;;;;;;16.43;100.00;101828.38;5083455;28;20108;-68
2022/07/30 01:03:45;;;;;;;9.68;3.90;;;;;;;16.38;100.00;101827.44;5101100;28;20360;-70
2022/07/30 01:06:11;;;;;;;9.40;4.10;;;;;;;16.41;100.00;101826.56;5110800;28;20053;-70
2022/07/30 01:08:36;;;;;;;8.18;4.10;;;;;;;16.33;100.00;101829.16;5110092;28;20038;-70
2022/07/30 01:11:01;;;;;;;8.30;3.90;;;;;;;16.33;100.00;101829.16;5115612;28;20024;-69
2022/07/30 01:13:27;;;;;;;9.38;4.10;;;;;;;16.43;100.00;101819.53;5112881;28;20062;-69
2022/07/30 01:15:52;;;;;;;11.23;4.35;;;;;;;16.56;100.00;101820.50;5096714;28;20028;-69
2022/07/30 01:18:19;;;;;;;7.78;3.72;;;;;;;16.62;100.00;101831.19;5097210;28;20072;-69
2022/07/30 01:20:56;;;;;;;6.05;3.83;;;;;;;16.78;100.00;101827.75;5103424;28;20072;-69
2022/07/30 01:23:44;;;;;;;10.00;3.83;;;;;;;16.90;100.00;101831.38;5115246;28;20057;-70
2022/07/30 01:26:21;;;;;;;13.38;4.40;;;;;;;16.89;100.00;101830.50;5106797;28;20065;-69
2022/07/30 01:28:50;;;;;;;7.20;3.75;;;;;;;16.90;100.00;101828.72;5114852;28;20015;-70
2022/07/30 01:31:18;;;;;;;12.05;4.57;;;;;;;16.84;100.00;101830.41;5113198;28;20027;-69
2022/07/30 01:33:47;;;;;;;6.93;4.35;;;;;;;16.89;100.00;101829.56;5112933;28;20080;-70
2022/07/30 01:36:16;;;;;;;6.13;3.92;;;;;;;16.89;100.00;101825.19;5110151;28;20028;-68
2022/07/30 01:38:45;;;;;;;8.27;4.00;;;;;;;16.94;100.00;101822.53;5114919;28;20446;-69
2022/07/30 01:41:13;;;;;;;8.80;3.92;;;;;;;16.95;100.00;101825.19;5109597;28;20061;-68
2022/07/30 01:43:40;;;;;;;10.50;3.78;;;;;;;16.94;100.00;101827.84;5115361;28;20019;-70
2022/07/30 01:46:07;;;;;;;15.40;4.53;;;;;;;16.94;100.00;101819.88;5115737;28;20047;-68
2022/07/30 01:48:41;;;;;;;11.52;3.83;;;;;;;16.92;100.00;101816.34;5103480;28;20063;-70
2022/07/30 01:51:08;;;;;;;5.68;3.47;;;;;;;16.91;100.00;101822.53;5111970;28;20047;-69
2022/07/30 01:53:37;;;;;;;8.82;3.72;;;;;;;16.94;100.00;101811.91;5113920;28;20058;-69
2022/07/30 01:56:04;;;;;;;8.75;3.78;;;;;;;16.88;100.00;101817.16;5105780;28;20027;-69
2022/07/30 01:58:34;;;;;;;8.00;4.20;;;;;;;16.84;100.00;101827.75;5111941;28;20172;-69
2022/07/30 02:00:59;;;;;;;8.15;4.50;;;;;;;16.81;100.00;101819.78;5113380;28;20024;-69
2022/07/30 02:03:25;;;;;;;6.10;3.40;;;;;;;16.79;100.00;101818.00;5107239;28;20475;-69
2022/07/30 02:06:14;;;;;;;8.20;3.78;;;;;;;16.72;100.00;101825.03;5114116;28;20031;-69
2022/07/30 02:08:43;;;;;;;8.25;3.67;;;;;;;16.54;100.00;101816.94;5113949;28;20450;-69
2022/07/30 02:11:12;;;;;;;5.65;3.60;;;;;;;16.41;100.00;101832.75;5107172;28;20031;-68
2022/07/30 02:13:50;;;;;;;7.38;3.40;;;;;;;16.42;100.00;101831.00;5108744;28;20029;-69
2022/07/30 02:16:20;;;;;;;6.40;3.40;;;;;;;16.38;100.00;101830.09;5112782;28;20020;-69
2022/07/30 02:18:55;;;;;;;6.78;3.55;;;;;;;16.31;100.00;101830.94;5112731;28;20027;-70
2022/07/30 02:21:23;;;;;;;9.07;4.05;;;;;;;16.14;100.00;101831.66;5114529;28;20785;-69
2022/07/30 02:23:50;;;;;;;6.88;4.15;;;;;;;16.08;100.00;101831.59;5110762;28;20094;-69
2022/07/30 02:26:19;;;;;;;5.10;3.47;;;;;;;16.04;100.00;101835.09;5104073;28;20425;-69
2022/07/30 02:28:50;;;;;;;6.05;3.90;;;;;;;16.02;100.00;101845.69;5114742;28;20375;-69
2022/07/30 02:31:19;;;;;;;8.80;3.38;;;;;;;15.95;100.00;101838.56;5112828;28;20019;-70
2022/07/30 02:33:48;;;;;;;8.27;3.83;;;;;;;15.93;100.00;101839.41;5111915;28;20094;-70
2022/07/30 02:36:15;;;;;;;11.98;3.95;;;;;;;15.90;100.00;101842.00;5112978;28;20027;-69
2022/07/30 02:38:42;;;;;;;6.47;3.63;;;;;;;15.86;100.00;101838.47;5096580;28;20055;-69
2022/07/30 02:41:10;;;;;;;8.13;3.67;;;;;;;15.80;100.00;101827.75;5114751;28;20024;-68
2022/07/30 02:43:38;;;;;;;9.52;3.38;;;;;;;15.75;100.00;101819.72;5113949;28;20019;-69
2022/07/30 02:46:06;;;;;;;8.05;4.00;;;;;;;15.76;100.00;101821.53;5112743;28;20068;-70
2022/07/30 02:48:32;;;;;;;7.15;3.92;;;;;;;15.65;100.00;101825.78;5096846;28;20023;-69
2022/07/30 02:51:00;;;;;;;8.88;3.63;;;;;;;15.63;100.00;101820.47;5113719;28;20035;-69
2022/07/30 02:53:26;;;;;;;7.82;3.67;;;;;;;15.71;100.00;101822.31;5111189;28;20038;-69
2022/07/30 02:55:55;;;;;;;8.15;3.80;;;;;;;15.78;100.00;101824.19;5113670;28;20023;-70
2022/07/30 02:58:23;;;;;;;6.82;4.07;;;;;;;15.75;100.00;101818.81;5095077;28;20035;-69
2022/07/30 03:00:51;;;;;;;10.90;4.22;;;;;;;15.70;100.00;101816.13;5113721;28;20020;-69
2022/07/30 03:03:17;;;;;;;14.10;4.28;;;;;;;15.76;100.00;101823.25;5113729;28;20024;-69
2022/07/30 03:05:43;;;;;;;10.65;4.05;;;;;;;15.82;100.00;101826.03;5112928;28;20030;-69
2022/07/30 03:08:09;;;;;;;9.93;3.80;;;;;;;15.93;100.00;101828.81;5094015;28;20023;-69
2022/07/30 03:10:36;;;;;;;5.70;3.83;;;;;;;16.01;100.00;101820.03;5113696;28;20027;-69
2022/07/30 03:13:05;;;;;;;6.75;3.90;;;;;;;16.05;100.00;101818.28;5113767;28;20098;-69
2022/07/30 03:15:33;;;;;;;10.40;4.32;;;;;;;16.06;100.00;101825.41;5110671;28;20491;-69
2022/07/30 03:18:00;;;;;;;10.90;4.20;;;;;;;16.10;100.00;101821.91;5094182;28;20061;-69
2022/07/30 03:20:28;;;;;;;7.70;4.10;;;;;;;16.05;100.00;101823.59;5092175;28;20452;-70
2022/07/30 03:22:56;;;;;;;8.40;3.92;;;;;;;16.04;100.00;101824.47;5105545;28;20085;-69
2022/07/30 03:25:25;;;;;;;15.38;4.53;;;;;;;16.03;100.00;101822.69;5098007;28;20050;-69
2022/07/30 03:27:53;;;;;;;16.08;4.63;;;;;;;16.02;100.00;101828.91;5113799;28;20059;-69
2022/07/30 03:30:18;;;;;;;6.95;4.00;;;;;;;16.00;100.00;101830.63;5112646;28;20114;-69
2022/07/30 03:32:44;;;;;;;10.82;4.57;;;;;;;15.96;100.00;101823.50;5113438;28;20066;-68
2022/07/30 03:35:10;;;;;;;6.88;4.25;;;;;;;15.99;100.00;101826.19;5107152;28;20483;-68
2022/07/30 03:37:38;;;;;;;6.60;4.30;;;;;;;16.05;100.00;101826.25;5105788;28;20024;-70
2022/07/30 03:40:05;;;;;;;10.77;4.90;;;;;;;15.97;100.00;101820.88;5111765;28;20451;-70
2022/07/30 03:42:33;;;;;;;12.95;4.30;;;;;;;15.86;100.00;101825.19;5110058;28;20032;-69
2022/07/30 03:45:00;;;;;;;8.75;3.70;;;;;;;15.79;100.00;101831.25;5100725;28;20110;-70
2022/07/30 03:47:26;;;;;;;8.32;4.60;;;;;;;15.73;100.00;101832.06;5103650;28;20467;-70
2022/07/30 03:49:52;;;;;;;8.55;4.18;;;;;;;15.67;100.00;101837.34;5102975;28;20031;-69
2022/07/30 03:52:18;;;;;;;9.25;4.28;;;;;;;15.63;100.00;101835.53;5101594;28;20032;-68
2022/07/30 03:54:44;;;;;;;9.77;4.78;;;;;;;15.58;100.00;101831.91;5093516;28;20020;-68
2022/07/30 03:57:10;;;;;;;10.30;4.80;;;;;;;15.54;100.00;101835.41;5092980;28;20079;-69
2022/07/30 03:59:35;;;;;;;6.50;4.40;;;;;;;15.64;100.00;101832.88;5094725;28;20054;-69
2022/07/30 04:02:02;;;;;;;8.20;4.93;;;;;;;15.64;100.00;101829.31;5107704;28;20048;-69
2022/07/30 04:04:29;;;;;;;11.75;4.63;;;;;;;15.60;100.00;101835.47;5092350;28;20073;-70
2022/07/30 04:06:55;;;;;;;9.98;4.85;;;;;;;15.56;100.00;101833.66;5104994;28;20352;-70
2022/07/30 04:09:21;;;;;;;9.98;5.10;;;;;;;15.56;100.00;101839.88;5108976;28;20023;-69
2022/07/30 04:11:46;;;;;;;7.72;4.93;;;;;;;15.48;100.00;101839.75;5113202;28;20372;-69
2022/07/30 04:14:11;;;;;;;9.77;5.10;;;;;;;15.53;100.00;101847.75;5105559;28;20020;-68
2022/07/30 04:17:01;;;;;;;10.50;5.00;;;;;;;15.56;100.00;101839.88;5109937;28;20031;-70
2022/07/30 04:19:45;;;;;;;6.90;4.80;;;;;;;15.72;100.00;101846.25;5112641;28;20034;-69
2022/07/30 04:22:12;;;;;;;11.73;4.68;;;;;;;15.62;100.00;101852.31;5076224;28;20020;-70
2022/07/30 04:24:39;;;;;;;7.13;4.38;;;;;;;15.56;100.00;101850.47;5096809;28;20085;-69
2022/07/30 04:27:05;;;;;;;8.25;4.15;;;;;;;15.51;100.00;101853.06;5107861;28;20064;-68
2022/07/30 04:29:31;;;;;;;8.93;4.15;;;;;;;15.55;100.00;101859.28;5108924;28;20035;-68
2022/07/30 04:31:57;;;;;;;9.85;4.72;;;;;;;15.56;100.00;101857.53;5111843;28;20027;-68
2022/07/30 04:34:22;;;;;;;6.70;4.60;;;;;;;15.58;100.00;101858.44;5106099;28;20049;-69
2022/07/30 04:36:47;;;;;;;8.18;4.47;;;;;;;15.65;100.00;101860.28;5101666;28;20436;-69
2022/07/30 04:39:13;;;;;;;7.30;4.22;;;;;;;15.68;100.00;101855.91;5102899;28;20032;-69
2022/07/30 04:41:39;;;;;;;7.47;4.13;;;;;;;15.74;100.00;101855.09;5100983;28;20058;-68
2022/07/30 04:44:04;;;;;;;9.15;3.90;;;;;;;15.76;100.00;101865.72;5104317;28;20517;-69
2022/07/30 04:46:30;;;;;;;5.93;4.35;;;;;;;15.78;100.00;101862.22;5111892;28;20147;-68
2022/07/30 04:48:55;;;;;;;7.95;4.15;;;;;;;15.78;100.00;101859.56;5111826;28;20443;-69
2022/07/30 04:51:25;;;;;;;6.65;3.72;;;;;;;15.89;100.00;101848.22;5096811;28;20471;-69
2022/07/30 04:53:52;;;;;;;8.00;4.00;;;;;;;15.92;100.00;101851.78;5112854;28;20112;-69
2022/07/30 04:56:19;;;;;;;9.20;4.15;;;;;;;15.97;100.00;101852.72;5102289;28;20028;-69
2022/07/30 04:58:45;;;;;;;7.22;3.38;;;;;;;16.03;100.00;101849.22;5110509;28;20059;-68
2022/07/30 05:01:15;;;;;;;9.25;3.65;;;;;;;16.10;100.00;101851.09;5102912;28;20024;-69
2022/07/30 05:03:42;;;;;;;6.53;3.80;;;;;;;16.09;100.00;101856.38;5100915;28;20099;-68
2022/07/30 05:06:07;;;;;;;7.30;3.38;;;;;;;16.05;100.00;101860.78;5101136;28;20020;-69
2022/07/30 05:08:33;;;;;;;9.20;3.30;;;;;;;16.11;100.00;101857.28;5105274;28;20050;-69
2022/07/30 05:10:59;;;;;;;9.98;3.63;;;;;;;16.33;100.00;101866.34;5104225;28;20052;-69
2022/07/30 05:13:24;;;;;;;8.50;3.20;;;;;;;16.40;100.00;101868.19;5112189;28;20032;-69
2022/07/30 05:15:50;;;;;;;6.80;3.10;;;;;;;16.46;100.00;101870.88;5106408;28;20030;-70
2022/07/30 05:18:15;;;;;;;5.88;2.97;;;;;;;16.51;100.00;101871.81;5111486;28;20023;-71
2022/07/30 05:20:41;;;;;;;7.90;2.65;;;;;;;16.56;100.00;101873.63;5109719;28;20107;-70
2022/07/30 05:23:06;;;;;;;6.60;2.58;;;;;;;16.59;100.00;101873.66;5108074;28;20030;-69
2022/07/30 05:25:31;;;;;;;7.03;3.00;;;;;;;16.62;100.00;101879.00;5110378;28;20463;-69
2022/07/30 05:27:57;;;;;;;6.57;3.05;;;;;;;16.63;100.00;101878.09;5112389;28;20482;-69
2022/07/30 05:30:23;;;;;;;5.57;2.75;;;;;;;16.63;100.00;101881.66;5113099;28;20040;-70
2022/07/30 05:32:49;;;;;;;4.75;2.58;;;;;;;16.64;100.00;101885.22;5098067;28;20107;-70
2022/07/30 05:35:15;;;;;;;6.43;2.53;;;;;;;16.65;100.00;101887.00;5108236;28;20494;-68
2022/07/30 05:37:40;;;;;;;7.93;3.17;;;;;;;16.67;100.00;101893.19;5087837;28;20073;-70
2022/07/30 05:40:06;;;;;;;4.05;2.67;;;;;;;16.72;100.00;101896.78;5096020;28;20093;-68
2022/07/30 05:42:31;;;;;;;8.63;2.65;;;;;;;16.74;100.00;101895.06;5115195;28;20100;-70
2022/07/30 05:44:57;;;;;;;6.85;2.40;;;;;;;16.80;100.00;101899.50;5087585;28;20399;-69
2022/07/30 05:47:22;;;;;;;4.80;2.38;;;;;;;16.85;100.00;101898.66;5108743;28;20034;-70
2022/07/30 05:49:47;;;;;;;3.92;2.30;;;;;;;16.90;100.00;101889.88;5093858;28;20020;-69
2022/07/30 05:52:13;;;;;;;7.28;2.42;;;;;;;16.95;100.00;101898.78;5112815;28;20077;-69
2022/07/30 05:54:38;;;;;;;5.55;2.80;;;;;;;16.98;100.00;101893.47;5095977;28;20054;-69
2022/07/30 05:57:03;;;;;;;7.55;2.20;;;;;;;17.02;100.00;101893.50;5102005;28;20020;-69
2022/07/30 05:59:29;;;;;;;5.60;1.80;;;;;;;17.07;100.00;101893.53;5113700;28;20483;-69
2022/07/30 06:01:54;;;;;;;8.63;2.30;;;;;;;17.11;100.00;101894.47;5107514;28;20028;-69
2022/07/30 06:04:19;;;;;;;8.13;2.05;;;;;;;17.18;100.00;101896.25;5095481;28;20031;-70
2022/07/30 06:06:45;;;;;;;3.35;2.00;;;;;;;17.24;100.00;101906.03;5110331;28;20144;-69
2022/07/30 06:09:10;;;;;;;5.55;1.90;;;;;;;17.26;100.00;101901.63;5100634;28;20145;-70
2022/07/30 06:11:36;;;;;;;8.55;2.53;;;;;;;17.32;100.00;101905.22;5096658;28;20027;-70
2022/07/30 06:14:01;;;;;;;4.50;1.80;;;;;;;17.36;100.00;101895.47;5113506;28;20438;-70
2022/07/30 06:16:26;;;;;;;5.45;1.70;;;;;;;17.42;100.00;101900.84;5110817;28;20028;-70
2022/07/30 06:18:52;;;;;;;4.97;2.10;;;;;;;17.46;100.00;101899.09;5109149;28;20019;-69
2022/07/30 06:21:17;;;;;;;6.43;1.70;;;;;;;17.47;100.00;101899.09;5112357;28;20058;-69
2022/07/30 06:23:42;;;;;;;6.38;2.25;;;;;;;17.53;100.00;101899.09;5114859;28;20051;-69
2022/07/30 06:26:08;;;;;;;6.40;1.90;;;;;;;17.58;100.00;101901.81;5105196;28;20019;-69
2022/07/30 06:28:33;;;;;;;5.28;1.52;;;;;;;17.63;100.00;101905.34;5094989;28;20030;-68
2022/07/30 06:30:58;;;;;;;6.63;1.52;;;;;;;17.67;100.00;101900.94;5088867;28;20106;-69
2022/07/30 06:33:24;;;;;;;3.05;1.50;;;;;;;17.73;100.00;101900.97;5113217;28;20035;-69
2022/07/30 06:35:49;;;;;;;5.47;1.40;;;;;;;17.81;100.00;101899.22;5112869;28;20023;-69
2022/07/30 06:38:14;;;;;;;4.40;1.58;;;;;;;17.91;100.00;101901.94;5094096;28;20394;-70
2022/07/30 06:40:40;;;;;;;4.82;1.23;;;;;;;17.96;100.00;101897.50;5108484;28;20055;-69
2022/07/30 06:43:05;;;;;;;3.92;1.50;;;;;;;18.03;100.00;101899.34;5095971;28;20023;-69
2022/07/30 06:45:31;;;;;;;3.08;1.65;;;;;;;18.11;100.00;101892.25;5101422;28;20019;-70
2022/07/30 06:47:57;;;;;;;3.28;1.20;;;;;;;18.15;100.00;101899.34;5112665;28;20015;-70
2022/07/30 06:50:23;;;;;;;2.38;1.27;;;;;;;18.24;100.00;101892.25;5107195;28;20531;-70
2022/07/30 06:52:48;;;;;;;2.70;1.42;;;;;;;18.23;100.00;101896.72;5109300;28;20023;-70
2022/07/30 06:55:14;;;;;;;3.38;1.40;;;;;;;18.32;100.00;101896.69;5102642;28;20113;-70
2022/07/30 06:57:39;;;;;;;4.22;1.33;;;;;;;18.39;100.00;101902.06;5107201;28;20020;-69
2022/07/30 07:00:06;;;;;;;9.35;1.75;;;;;;;18.44;100.00;101898.50;5105516;28;20068;-69
2022/07/30 07:02:31;;;;;;;5.80;2.08;;;;;;;18.48;100.00;101896.72;5086899;28;20085;-69
2022/07/30 07:04:56;;;;;;;2.47;1.30;;;;;;;18.56;100.00;101910.03;5098164;28;20020;-67
2022/07/30 07:07:22;;;;;;;7.80;1.98;;;;;;;18.63;100.00;101898.50;5103546;28;20080;-70
2022/07/30 07:09:47;;;;;;;7.22;1.42;;;;;;;18.62;100.00;101902.94;5103637;28;20468;-72
2022/07/30 07:12:12;;;;;;;2.08;1.10;;;;;;;18.71;100.00;101907.41;5104018;28;20463;-72
2022/07/30 07:14:38;;;;;;;5.43;1.35;;;;;;;18.75;100.00;101901.16;5107412;28;20412;-71
2022/07/30 07:17:03;;;;;;;6.07;1.30;;;;;;;18.80;100.00;101904.72;5111462;28;20024;-71
2022/07/30 07:19:28;;;;;;;4.82;1.20;;;;;;;18.84;100.00;101910.94;5089450;28;20088;-71
2022/07/30 07:21:54;;;;;;;3.90;1.23;;;;;;;18.90;100.00;101912.75;5091357;28;20059;-71
2022/07/30 07:24:19;;;;;;;4.18;1.60;;;;;;;18.81;100.00;101901.16;5083799;28;20119;-71
2022/07/30 07:26:44;;;;;;;4.68;1.23;;;;;;;18.92;100.00;101909.19;5113780;28;20069;-71
2022/07/30 07:29:10;;;;;;;5.05;1.60;;;;;;;18.97;100.00;101911.84;5089590;28;20019;-72
2022/07/30 07:31:35;;;;;;;6.68;1.30;;;;;;;19.04;100.00;101908.28;5096671;28;20042;-72
2022/07/30 07:34:01;;;;;;;3.58;1.13;;;;;;;19.07;100.00;101908.25;5100803;28;20024;-73
2022/07/30 07:36:27;;;;;;;2.88;1.08;;;;;;;19.08;100.00;101910.06;5083482;28;20045;-71
2022/07/30 07:38:52;;;;;;;4.05;1.10;;;;;;;19.09;100.00;101914.50;5108808;28;20035;-73
2022/07/30 07:41:18;;;;;;;4.35;1.35;;;;;;;19.20;100.00;101912.69;5111904;28;20024;-72
2022/07/30 07:43:43;;;;;;;4.55;1.40;;;;;;;19.28;100.00;101914.47;5106548;28;20110;-73
2022/07/30 07:46:08;;;;;;;7.63;1.70;;;;;;;19.24;100.00;101910.03;5110521;28;20024;-72
2022/07/30 07:48:34;;;;;;;4.22;1.30;;;;;;;19.29;100.00;101921.56;5077671;28;20047;-72
2022/07/30 07:50:59;;;;;;;6.72;1.10;;;;;;;19.32;100.00;101918.91;5096348;28;20035;-72
2022/07/30 07:53:24;;;;;;;5.07;1.30;;;;;;;19.30;100.00;101915.34;5098009;28;20028;-72
2022/07/30 07:55:50;;;;;;;2.67;1.05;;;;;;;19.30;100.00;101916.25;5098465;28;20032;-71
2022/07/30 07:58:16;;;;;;;3.85;1.10;;;;;;;19.30;100.00;101926.03;5093750;28;20044;-71
2022/07/30 08:00:41;;;;;;;4.55;1.15;;;;;;;19.34;100.00;101917.09;5084716;28;20028;-72
2022/07/30 08:03:07;;;;;;;3.58;1.15;;;;;;;19.46;100.00;101916.19;5081905;28;20020;-72
2022/07/30 08:05:32;;;;;;;4.55;1.15;;;;;;;19.57;100.00;101918.81;5093866;28;20072;-72
2022/07/30 08:07:58;;;;;;;1.50;0.90;;;;;;;19.54;100.00;101909.91;5079032;28;20375;-72
2022/07/30 08:10:23;;;;;;;3.70;1.20;;;;;;;19.45;100.00;101909.97;5102427;28;20141;-73
2022/07/30 08:12:49;;;;;;;3.28;1.00;;;;;;;19.45;100.00;101909.97;5098728;28;20019;-71
2022/07/30 08:15:14;;;;;;;2.53;1.15;;;;;;;19.50;100.00;101913.50;5075685;28;20469;-72
2022/07/30 08:17:41;;;;;;;1.05;0.73;;;;;;;19.55;100.00;101909.03;5103425;28;20383;-71
2022/07/30 08:20:07;;;;;;;5.10;1.10;;;;;;;19.63;100.00;101908.09;5105796;28;20019;-71
2022/07/30 08:22:33;;;;;;;4.25;1.10;;;;;;;19.75;100.00;101905.41;5102444;28;20023;-72
2022/07/30 08:24:59;;;;;;;6.85;1.17;;;;;;;19.90;100.00;101903.56;5103995;28;20023;-72
2022/07/30 08:27:25;;;;;;;3.28;1.08;;;;;;;19.99;100.00;101903.53;5100386;28;20034;-72
2022/07/30 08:29:50;;;;;;;4.25;1.40;;;;;;;20.09;100.00;101899.91;5098351;28;20084;-71
2022/07/30 08:32:16;;;;;;;3.38;1.20;;;;;;;20.21;100.00;101902.50;5099709;28;20095;-71
2022/07/30 08:34:41;;;;;;;3.70;1.15;;;;;;;20.31;100.00;101902.44;5100377;28;20023;-72
2022/07/30 08:37:06;;;;;;;2.72;1.00;;;;;;;20.37;100.00;101905.06;5093424;28;20093;-71
2022/07/30 08:39:32;;;;;;;5.00;1.13;;;;;;;20.39;100.00;101901.47;5102819;28;20093;-71
2022/07/30 08:41:58;;;;;;;2.58;1.08;;;;;;;20.39;100.00;101903.28;5099983;28;20531;-72
2022/07/30 08:44:25;;;;;;;1.48;0.80;;;;;;;20.36;100.00;101909.53;5108125;28;20394;-70
2022/07/30 08:46:55;;;;;;;3.83;1.27;;;;;;;20.42;100.00;101911.28;5104103;28;20428;-70
2022/07/30 08:49:21;;;;;;;1.58;0.82;;;;;;;20.54;100.00;101913.84;5096310;28;20024;-71
2022/07/30 08:51:48;;;;;;;3.78;1.23;;;;;;;20.64;100.00;101913.78;5079121;28;20368;-71
2022/07/30 08:54:14;;;;;;;1.33;0.80;;;;;;;20.60;97.50;101920.06;5095305;28;20028;-71
2022/07/30 08:56:40;;;;;;;2.88;0.90;;;;;;;20.65;96.82;101918.22;5066504;28;20036;-71
2022/07/30 08:59:06;;;;;;;7.05;1.23;;;;;;;20.69;100.00;101925.38;5093926;28;20063;-72
2022/07/30 09:01:31;;;;;;;2.83;1.00;;;;;;;20.86;99.62;101927.88;5095172;28;20016;-71
2022/07/30 09:03:57;;;;;;;3.60;1.10;;;;;;;20.94;98.26;101931.38;5093148;28;20028;-71
2022/07/30 09:06:22;;;;;;;2.90;0.90;;;;;;;21.05;100.00;101923.22;5114670;28;20042;-69
2022/07/30 09:08:47;;;;;;;3.13;1.55;;;;;;;21.22;97.19;101920.41;5117183;28;20470;-70
2022/07/30 09:11:13;;;;;;;2.00;1.00;;;;;;;21.30;96.08;101913.16;5117183;28;20039;-71
2022/07/30 09:13:41;;;;;;;4.97;1.05;;;;;;;21.37;95.34;101930.06;5117233;28;20351;-70
2022/07/30 09:16:17;;;;;;;1.60;0.90;;;;;;;21.42;96.04;101928.22;5079855;28;20390;-71
2022/07/30 09:18:43;;;;;;;6.60;1.20;;;;;;;21.55;97.61;101932.56;5099256;28;20023;-69
2022/07/30 09:21:20;;;;;;;2.25;1.30;;;;;;;21.68;97.10;101935.09;5078338;28;20115;-70
2022/07/30 09:24:04;;;;;;;3.88;1.08;;;;;;;21.80;95.82;101932.25;5107012;28;20038;-71
2022/07/30 09:26:34;;;;;;;1.98;0.90;;;;;;;21.89;95.69;101929.47;5105842;28;20024;-71
2022/07/30 09:29:19;;;;;;;3.05;0.90;;;;;;;22.00;92.09;101926.63;5116785;28;20471;-71
2022/07/30 09:32:00;;;;;;;1.60;1.05;;;;;;;21.90;90.55;101919.63;5116075;28;20034;-71
2022/07/30 09:34:29;;;;;;;4.03;1.33;;;;;;;21.95;93.47;101916.84;5109530;28;20023;-71
2022/07/30 09:36:58;;;;;;;3.33;1.25;;;;;;;22.09;92.42;101919.38;5080987;28;20185;-70
2022/07/30 09:39:41;;;;;;;3.13;1.10;;;;;;;22.27;93.24;101919.06;5100548;28;20031;-71
2022/07/30 09:42:24;;;;;;;1.95;1.00;;;;;;;22.38;90.99;101911.81;5108291;28;20057;-70
2022/07/30 09:44:51;;;;;;;2.67;1.05;;;;;;;22.56;94.70;101910.63;5093759;28;20099;-67
2022/07/30 09:47:34;;;;;;;2.25;1.02;;;;;;;22.64;91.16;101905.13;5108672;28;20040;-70
2022/07/30 09:50:13;;;;;;;2.97;1.20;;;;;;;22.56;85.45;101910.63;5105169;28;20051;-76
2022/07/30 09:52:41;;;;;;;7.88;1.15;;;;;;;22.70;87.79;101909.50;5100496;28;20024;-71
2022/07/30 09:55:07;;;;;;;4.50;1.00;;;;;;;22.76;91.57;101906.69;5103844;28;20031;-70
2022/07/30 09:57:33;;;;;;;1.48;1.00;;;;;;;23.00;89.74;101905.38;5108138;28;20035;-71
2022/07/30 10:00:17;;;;;;;3.22;1.02;;;;;;;23.07;89.83;101904.38;5102641;28;20044;-70
2022/07/30 10:02:43;;;;;;;1.52;1.10;;;;;;;23.23;86.07;101904.97;5111416;28;20102;-71
2022/07/30 10:05:13;;;;;;;3.75;1.23;;;;;;;23.44;86.97;101905.47;5101327;28;20106;-71
2022/07/30 10:07:42;;;;;;;3.42;1.20;;;;;;;23.60;84.11;101905.16;5109516;28;20039;-69
2022/07/30 10:10:07;;;;;;;3.42;1.23;;;;;;;23.68;80.21;101900.50;5110502;28;20475;-72
2022/07/30 10:12:34;;;;;;;2.20;0.95;;;;;;;23.60;78.34;101910.53;5090190;28;20110;-70
2022/07/30 10:15:01;;;;;;;3.65;1.23;;;;;;;23.64;77.78;101913.09;5107019;28;20020;-70
2022/07/30 10:17:30;;;;;;;5.50;0.95;;;;;;;23.87;85.13;101912.59;5109703;28;20513;-71
2022/07/30 10:19:56;;;;;;;2.85;1.13;;;;;;;23.98;78.12;101916.91;5111571;28;20015;-71
2022/07/30 10:22:21;;;;;;;2.38;0.90;;;;;;;24.32;81.86;101933.16;5108442;28;20020;-71
2022/07/30 10:24:48;;;;;;;3.97;1.20;;;;;;;24.60;75.44;101923.53;5104424;28;20471;-70
2022/07/30 10:27:14;;;;;;;2.35;1.20;;;;;;;24.79;74.78;101922.16;5103471;28;20020;-70
2022/07/30 10:29:40;;;;;;;3.70;1.30;;;;;;;25.01;73.60;101921.59;5099474;28;20478;-69
2022/07/30 10:32:05;;;;;;;3.83;1.30;;;;;;;25.08;74.82;101918.69;5101600;28;20040;-69
2022/07/30 10:34:31;;;;;;;3.28;1.30;;;;;;;25.00;70.44;101917.13;5103227;28;20035;-71
2022/07/30 10:37:04;;;;;;;2.50;1.25;;;;;;;24.66;76.40;101918.91;5096702;28;20024;-71
2022/07/30 10:39:33;;;;;;;;;;;;;;;24.90;75.91;101914.66;5095446;28;20368;-71
2022/07/30 10:42:24;;;;;;;2.42;1.20;;;;;;;24.98;72.83;101921.69;5098744;28;19918;-70
2022/07/30 10:45:08;;;;;;;1.30;1.00;;;;;;;24.97;73.05;101914.53;5096765;28;20026;-69
2022/07/30 10:47:36;;;;;;;4.13;1.25;;;;;;;25.03;72.42;101911.69;5100476;28;20365;-70
2022/07/30 10:50:11;;;;;;;3.63;1.20;;;;;;;25.12;69.98;101914.09;5099383;28;20024;-70
2022/07/30 10:52:49;;;;;;;5.43;1.15;;;;;;;25.11;74.83;101911.44;5108145;28;20110;-70
2022/07/30 10:55:18;;;;;;;3.00;1.02;;;;;;;25.22;70.40;101915.63;5109724;28;20068;-70
2022/07/30 10:58:14;;;;;;;4.53;1.25;;;;;;;25.29;71.45;101910.06;5081380;28;20081;-69
2022/07/30 11:00:51;;;;;;;2.88;1.13;;;;;;;25.35;74.47;101900.03;5082431;28;20515;-70
2022/07/30 11:03:18;;;;;;;3.70;1.30;;;;;;;25.37;68.87;101905.38;5099823;28;20023;-71
2022/07/30 11:05:49;;;;;;;2.80;1.20;;;;;;;25.19;67.22;101907.63;5096269;28;20031;-67
2022/07/30 11:08:35;;;;;;;4.68;1.05;;;;;;;24.74;65.87;101905.22;5094387;28;20113;-69
2022/07/30 11:11:01;;;;;;;2.08;0.98;;;;;;;24.61;67.67;101912.72;5108286;28;20053;-68
2022/07/30 11:13:52;;;;;;;5.13;1.08;;;;;;;24.63;72.75;101913.59;5094264;28;20034;-70
2022/07/30 11:16:19;;;;;;;3.00;1.38;;;;;;;24.63;70.14;101915.41;5109098;28;20459;-68
2022/07/30 11:19:15;;;;;;;5.40;1.40;;;;;;;24.45;71.71;101916.72;5105860;28;20031;-69
2022/07/30 11:21:40;;;;;;;5.68;0.80;;;;;;;24.36;68.59;101920.50;5104597;28;20506;-70